Time;durP1;ratioP1;P1;durP2;ratioP2;P2;SDS_P1;SDS_P2;PMS_P1;PMS_P2;Temp;Humidity;BMP_temperature;BMP_pressure;BME280_temperature;BME280_humidity;BME280_pressure;Samples;Min_cycle;Max_cycle;Signal;HPM_P1;HPM_P2
2021/06/22 00:01:45;;;;;;;9.02;7.00;;;;;;;;;;4993291;28;20449;-68
2021/06/22 00:04:11;;;;;;;16.30;8.95;;;;;;;;;;4993358;28;20022;-68
2021/06/22 00:06:36;;;;;;;20.80;8.07;;;;;;;;;;4992682;28;20027;-68
2021/06/22 00:09:02;;;;;;;14.85;7.68;;;;;;;;;;4992752;28;20023;-68
2021/06/22 00:11:28;;;;;;;13.63;7.30;;;;;;;;;;4991801;28;20074;-68
2021/06/22 00:13:53;;;;;;;14.45;7.00;;;;;;;;;;4974703;28;20042;-68
2021/06/22 00:16:19;;;;;;;18.17;8.23;;;;;;;;;;4993260;28;20022;-69
2021/06/22 00:18:44;;;;;;;17.05;7.65;;;;;;;;;;4992966;28;20023;-68
2021/06/22 00:21:10;;;;;;;11.57;7.47;;;;;;;;;;4992212;28;20474;-68
2021/06/22 00:23:35;;;;;;;20.65;7.18;;;;;;;;;;4993101;28;20026;-68
2021/06/22 00:26:00;;;;;;;15.07;8.07;;;;;;;;;;4992885;28;20545;-68
2021/06/22 00:28:26;;;;;;;14.05;7.25;;;;;;;;;;4992416;28;20088;-68
2021/06/22 00:30:51;;;;;;;16.40;8.10;;;;;;;;;;4992805;28;20057;-68
2021/06/22 00:33:17;;;;;;;16.73;8.18;;;;;;;;;;4994491;28;20121;-69
2021/06/22 00:35:42;;;;;;;10.70;8.13;;;;;;;;;;4995693;28;20014;-68
2021/06/22 00:38:07;;;;;;;9.80;7.72;;;;;;;;;;4996461;28;20061;-68
2021/06/22 00:40:33;;;;;;;10.70;7.55;;;;;;;;;;4978715;28;20486;-68
2021/06/22 00:42:59;;;;;;;13.00;8.35;;;;;;;;;;4995708;28;20030;-68
2021/06/22 00:45:26;;;;;;;12.60;8.63;;;;;;;;;;4996364;28;20014;-68
2021/06/22 00:47:51;;;;;;;13.65;8.93;;;;;;;;;;4996215;28;20486;-68
2021/06/22 00:50:16;;;;;;;17.50;9.13;;;;;;;;;;4994336;28;20026;-68
2021/06/22 00:52:42;;;;;;;15.07;8.35;;;;;;;;;;4996133;28;20077;-69
2021/06/22 00:55:28;;;;;;;13.85;8.38;;;;;;;;;;4996049;28;20029;-69
2021/06/22 00:57:56;;;;;;;13.45;8.77;;;;;;;;;;4995721;28;20437;-68
2021/06/22 01:00:22;;;;;;;11.18;8.32;;;;;;;;;;4996047;28;20011;-68
2021/06/22 01:02:47;;;;;;;14.85;8.98;;;;;;;;;;4995947;28;20085;-68
2021/06/22 01:05:13;;;;;;;10.55;8.63;;;;;;;;;;4995105;28;20026;-68
2021/06/22 01:07:38;;;;;;;12.95;9.50;;;;;;;;;;4995750;28;20016;-68
2021/06/22 01:10:04;;;;;;;13.80;9.63;;;;;;;;;;4995383;28;20371;-68
2021/06/22 01:12:30;;;;;;;13.55;8.93;;;;;;;;;;4995562;28;20027;-68
2021/06/22 01:14:55;;;;;;;19.90;9.00;;;;;;;;;;4995815;28;20459;-68
2021/06/22 01:17:20;;;;;;;13.40;9.30;;;;;;;;;;4977797;28;20491;-68
2021/06/22 01:19:47;;;;;;;19.75;9.07;;;;;;;;;;4995815;28;20030;-69
2021/06/22 01:22:12;;;;;;;17.15;9.32;;;;;;;;;;4995179;28;20113;-68
2021/06/22 01:24:38;;;;;;;13.77;8.98;;;;;;;;;;4994264;28;20106;-68
2021/06/22 01:27:03;;;;;;;15.98;9.45;;;;;;;;;;4977741;28;20102;-68
2021/06/22 01:29:29;;;;;;;16.73;9.10;;;;;;;;;;4994735;28;20510;-68
2021/06/22 01:31:56;;;;;;;18.08;9.73;;;;;;;;;;4995453;28;20026;-68
2021/06/22 01:34:22;;;;;;;17.55;10.40;;;;;;;;;;4995634;28;20121;-68
2021/06/22 01:36:48;;;;;;;19.92;10.60;;;;;;;;;;4994982;28;20430;-68
2021/06/22 01:39:14;;;;;;;20.00;9.60;;;;;;;;;;4995075;28;20029;-68
2021/06/22 01:41:39;;;;;;;19.52;10.90;;;;;;;;;;4995259;28;20100;-68
2021/06/22 01:44:05;;;;;;;15.23;9.82;;;;;;;;;;4994525;28;20030;-68
2021/06/22 01:46:30;;;;;;;13.68;9.10;;;;;;;;;;4995013;28;20474;-68
2021/06/22 01:48:56;;;;;;;15.35;10.77;;;;;;;;;;4995015;28;20538;-68
2021/06/22 01:51:21;;;;;;;15.68;9.50;;;;;;;;;;4994415;28;20030;-69
2021/06/22 01:53:51;;;;;;;23.02;11.15;;;;;;;;;;4994743;28;20037;-69
2021/06/22 01:56:16;;;;;;;20.00;10.93;;;;;;;;;;4977792;28;20015;-69
2021/06/22 01:58:42;;;;;;;17.63;12.27;;;;;;;;;;4994447;28;20034;-68
2021/06/22 02:01:07;;;;;;;21.42;11.23;;;;;;;;;;4994209;28;20039;-68
2021/06/22 02:03:33;;;;;;;16.45;11.95;;;;;;;;;;4994958;28;20029;-69
2021/06/22 02:05:58;;;;;;;18.33;12.88;;;;;;;;;;4994515;28;20098;-69
2021/06/22 02:08:24;;;;;;;16.88;11.95;;;;;;;;;;4993915;28;20493;-69
2021/06/22 02:10:49;;;;;;;16.30;11.32;;;;;;;;;;4994302;28;20022;-68
2021/06/22 02:13:15;;;;;;;20.08;11.77;;;;;;;;;;4976548;28;20117;-68
2021/06/22 02:15:41;;;;;;;22.30;13.02;;;;;;;;;;4977076;28;20026;-68
2021/06/22 02:18:07;;;;;;;20.45;12.82;;;;;;;;;;4994770;28;20026;-68
2021/06/22 02:20:33;;;;;;;15.27;12.20;;;;;;;;;;4994029;28;20022;-68
2021/06/22 02:22:59;;;;;;;18.67;11.73;;;;;;;;;;4994202;28;20534;-69
2021/06/22 02:25:24;;;;;;;15.38;12.25;;;;;;;;;;4994426;28;20109;-68
2021/06/22 02:27:59;;;;;;;17.60;11.93;;;;;;;;;;4993698;28;20379;-68
2021/06/22 02:30:24;;;;;;;22.73;13.93;;;;;;;;;;4993882;28;20050;-68
2021/06/22 02:32:50;;;;;;;18.30;12.77;;;;;;;;;;4993832;28;20110;-68
2021/06/22 02:35:15;;;;;;;27.90;13.75;;;;;;;;;;4993449;28;20486;-68
2021/06/22 02:37:41;;;;;;;17.98;12.68;;;;;;;;;;4994036;28;20434;-68
2021/06/22 02:40:08;;;;;;;20.42;14.15;;;;;;;;;;4994041;28;20018;-68
2021/06/22 02:42:33;;;;;;;35.15;16.33;;;;;;;;;;4993653;28;20040;-68
2021/06/22 02:44:59;;;;;;;19.63;12.60;;;;;;;;;;4994044;28;20069;-68
2021/06/22 02:47:24;;;;;;;19.48;12.57;;;;;;;;;;4993763;28;20018;-68
2021/06/22 02:49:50;;;;;;;22.67;12.80;;;;;;;;;;4975808;28;20030;-68
2021/06/22 02:52:16;;;;;;;18.25;12.27;;;;;;;;;;4994122;28;20550;-69
2021/06/22 02:54:41;;;;;;;21.42;12.65;;;;;;;;;;4993938;28;20387;-69
2021/06/22 02:57:08;;;;;;;21.42;13.27;;;;;;;;;;4992934;28;20011;-69
2021/06/22 02:59:34;;;;;;;20.13;12.60;;;;;;;;;;4993790;28;20029;-68
2021/06/22 03:01:59;;;;;;;21.48;13.30;;;;;;;;;;4993791;28;20022;-68
2021/06/22 03:04:24;;;;;;;24.35;13.98;;;;;;;;;;4993229;28;20018;-68
2021/06/22 03:06:50;;;;;;;20.73;12.70;;;;;;;;;;4976236;28;20022;-68
2021/06/22 03:09:15;;;;;;;23.00;14.13;;;;;;;;;;4993499;28;20093;-68
2021/06/22 03:11:41;;;;;;;17.27;13.23;;;;;;;;;;4992808;28;20010;-69
2021/06/22 03:14:06;;;;;;;20.55;13.55;;;;;;;;;;4993525;28;20651;-68
2021/06/22 03:16:31;;;;;;;20.75;13.43;;;;;;;;;;4993810;28;20037;-68
2021/06/22 03:18:57;;;;;;;23.63;13.80;;;;;;;;;;4993081;28;20430;-68
2021/06/22 03:21:22;;;;;;;21.15;13.35;;;;;;;;;;4993269;28;20030;-68
2021/06/22 03:23:49;;;;;;;27.02;14.35;;;;;;;;;;4993578;28;20027;-68
2021/06/22 03:26:15;;;;;;;19.83;12.98;;;;;;;;;;4993509;28;20022;-68
2021/06/22 03:28:40;;;;;;;26.38;13.40;;;;;;;;;;4975567;28;20018;-68
2021/06/22 03:31:05;;;;;;;19.77;13.60;;;;;;;;;;4993219;28;20093;-68
2021/06/22 03:33:31;;;;;;;16.02;12.75;;;;;;;;;;4992826;28;20088;-68
2021/06/22 03:35:56;;;;;;;20.50;13.52;;;;;;;;;;4993392;28;20026;-69
2021/06/22 03:38:22;;;;;;;21.00;13.13;;;;;;;;;;4993326;28;20030;-68
2021/06/22 03:40:47;;;;;;;16.42;11.93;;;;;;;;;;4992924;28;20117;-68
2021/06/22 03:43:13;;;;;;;19.38;13.05;;;;;;;;;;4993396;28;20025;-68
2021/06/22 03:45:38;;;;;;;23.60;13.23;;;;;;;;;;4993761;28;20026;-68
2021/06/22 03:48:05;;;;;;;19.45;12.32;;;;;;;;;;4992555;28;20492;-68
2021/06/22 03:50:30;;;;;;;17.40;12.82;;;;;;;;;;4992993;28;20030;-68
2021/06/22 03:52:55;;;;;;;25.05;13.25;;;;;;;;;;4993159;28;20437;-68
2021/06/22 03:55:34;;;;;;;21.42;12.35;;;;;;;;;;4992992;28;20702;-66
2021/06/22 03:58:00;;;;;;;20.30;13.57;;;;;;;;;;4993076;28;20526;-66
2021/06/22 04:00:26;;;;;;;15.88;12.60;;;;;;;;;;4971457;28;20011;-66
2021/06/22 04:02:52;;;;;;;20.23;12.95;;;;;;;;;;4991491;28;20027;-66
2021/06/22 04:05:17;;;;;;;19.30;12.65;;;;;;;;;;4993062;28;20422;-66
2021/06/22 04:07:42;;;;;;;22.38;12.88;;;;;;;;;;4993748;28;20053;-67
2021/06/22 04:10:09;;;;;;;19.35;12.48;;;;;;;;;;4996532;28;20018;-67
2021/06/22 04:12:34;;;;;;;18.38;11.93;;;;;;;;;;4996774;28;20497;-67
2021/06/22 04:15:00;;;;;;;15.20;11.90;;;;;;;;;;4996817;28;20121;-68
2021/06/22 04:17:25;;;;;;;20.52;12.85;;;;;;;;;;4996524;28;20096;-67
2021/06/22 04:19:51;;;;;;;19.17;11.70;;;;;;;;;;4996234;28;20026;-68
2021/06/22 04:22:16;;;;;;;18.60;12.10;;;;;;;;;;4996707;28;20033;-68
2021/06/22 04:24:41;;;;;;;19.05;12.63;;;;;;;;;;4996931;28;20073;-68
2021/06/22 04:27:07;;;;;;;13.40;10.50;;;;;;;;;;4995857;28;20415;-69
2021/06/22 04:29:32;;;;;;;18.33;11.15;;;;;;;;;;4995883;28;20054;-68
2021/06/22 04:31:58;;;;;;;21.13;12.27;;;;;;;;;;4996658;28;20509;-68
2021/06/22 04:34:24;;;;;;;19.80;10.88;;;;;;;;;;4996144;28;20034;-68
2021/06/22 04:36:50;;;;;;;20.15;11.05;;;;;;;;;;4996463;28;20097;-68
2021/06/22 04:39:15;;;;;;;19.30;11.55;;;;;;;;;;4996259;28;20021;-68
2021/06/22 04:41:40;;;;;;;18.60;11.77;;;;;;;;;;4995998;28;20124;-68
2021/06/22 04:44:06;;;;;;;19.88;11.70;;;;;;;;;;4996436;28;20023;-69
2021/06/22 04:46:32;;;;;;;22.13;12.43;;;;;;;;;;4996442;28;20395;-68
2021/06/22 04:48:57;;;;;;;24.38;11.38;;;;;;;;;;4995545;28;20018;-68
2021/06/22 04:51:23;;;;;;;17.45;12.05;;;;;;;;;;4995935;28;20483;-69
2021/06/22 04:53:49;;;;;;;21.65;12.02;;;;;;;;;;4996303;28;20490;-68
2021/06/22 04:56:14;;;;;;;20.60;10.20;;;;;;;;;;4995839;28;20029;-68
2021/06/22 04:58:40;;;;;;;23.98;11.07;;;;;;;;;;4996025;28;20025;-68
2021/06/22 05:01:05;;;;;;;17.42;10.77;;;;;;;;;;4995767;28;20122;-69
2021/06/22 05:03:32;;;;;;;33.42;10.93;;;;;;;;;;4995738;28;20014;-68
2021/06/22 05:05:58;;;;;;;21.55;11.25;;;;;;;;;;4995864;28;20026;-68
2021/06/22 05:08:23;;;;;;;18.80;10.38;;;;;;;;;;4995983;28;20026;-69
2021/06/22 05:10:49;;;;;;;18.83;9.77;;;;;;;;;;4994805;28;20594;-69
2021/06/22 05:13:14;;;;;;;19.45;10.10;;;;;;;;;;4995429;28;20033;-68
2021/06/22 05:15:40;;;;;;;24.83;10.55;;;;;;;;;;4995930;28;20093;-68
2021/06/22 05:18:05;;;;;;;19.42;8.95;;;;;;;;;;4994638;28;20010;-67
2021/06/22 05:20:31;;;;;;;26.27;11.02;;;;;;;;;;4995310;28;20467;-67
2021/06/22 05:22:56;;;;;;;22.67;9.45;;;;;;;;;;4995687;28;20471;-67
2021/06/22 05:25:22;;;;;;;22.40;9.55;;;;;;;;;;4994872;28;20026;-68
2021/06/22 05:27:47;;;;;;;25.33;9.65;;;;;;;;;;4995751;28;20118;-68
2021/06/22 05:30:13;;;;;;;18.75;8.68;;;;;;;;;;4995298;28;20054;-67
2021/06/22 05:32:38;;;;;;;31.33;9.98;;;;;;;;;;4995016;28;20386;-68
2021/06/22 05:35:04;;;;;;;28.90;8.98;;;;;;;;;;4995024;28;20038;-67
2021/06/22 05:37:30;;;;;;;24.58;8.65;;;;;;;;;;4995476;28;20038;-68
2021/06/22 05:39:55;;;;;;;22.45;8.77;;;;;;;;;;4994718;28;20498;-68
2021/06/22 05:42:21;;;;;;;23.75;7.38;;;;;;;;;;4995232;28;20045;-67
2021/06/22 05:44:46;;;;;;;26.25;8.82;;;;;;;;;;4995362;28;20022;-68
2021/06/22 05:47:12;;;;;;;27.23;7.40;;;;;;;;;;4994536;28;20471;-68
2021/06/22 05:49:37;;;;;;;22.85;7.75;;;;;;;;;;4994983;28;20398;-68
2021/06/22 05:52:03;;;;;;;31.05;8.30;;;;;;;;;;4995198;28;20475;-67
2021/06/22 05:54:29;;;;;;;33.22;7.68;;;;;;;;;;4994570;28;20394;-68
2021/06/22 05:56:54;;;;;;;54.53;8.40;;;;;;;;;;4993581;28;20429;-67
2021/06/22 05:59:20;;;;;;;77.00;10.60;;;;;;;;;;4989397;28;20014;-68
2021/06/22 06:01:45;;;;;;;31.98;7.88;;;;;;;;;;4993965;28;20117;-67
2021/06/22 06:04:10;;;;;;;32.75;7.43;;;;;;;;;;4994402;28;20356;-68
2021/06/22 06:06:36;;;;;;;29.85;7.35;;;;;;;;;;5007020;28;20053;-70
2021/06/22 06:09:01;;;;;;;34.25;7.38;;;;;;;;;;5012533;28;20428;-68
2021/06/22 06:11:26;;;;;;;30.45;6.70;;;;;;;;;;5013184;28;20030;-65
2021/06/22 06:13:52;;;;;;;29.10;6.03;;;;;;;;;;5008984;28;20041;-72
2021/06/22 06:16:17;;;;;;;28.13;5.68;;;;;;;;;;5006165;28;20022;-70
2021/06/22 06:18:43;;;;;;;39.28;6.63;;;;;;;;;;5012082;28;20026;-65
2021/06/22 06:21:08;;;;;;;39.22;6.32;;;;;;;;;;5000383;28;20113;-66
2021/06/22 06:23:40;;;;;;;34.25;5.95;;;;;;;;;;4999890;28;20054;-67
2021/06/22 06:26:07;;;;;;;21.77;5.47;;;;;;;;;;5002264;28;20072;-70
2021/06/22 06:28:37;;;;;;;29.77;5.68;;;;;;;;;;5005772;28;20030;-68
2021/06/22 06:31:02;;;;;;;33.03;5.95;;;;;;;;;;4994699;28;20069;-71
2021/06/22 06:33:28;;;;;;;56.20;7.82;;;;;;;;;;4992296;28;20034;-68
2021/06/22 06:35:54;;;;;;;27.95;5.72;;;;;;;;;;5000190;28;20014;-69
2021/06/22 06:38:20;;;;;;;33.85;5.68;;;;;;;;;;5012061;28;20497;-67
2021/06/22 06:40:45;;;;;;;36.65;6.30;;;;;;;;;;5012480;28;20010;-67
2021/06/22 06:43:11;;;;;;;35.08;5.78;;;;;;;;;;5005155;28;20017;-68
2021/06/22 06:45:36;;;;;;;29.58;5.22;;;;;;;;;;4999742;28;20498;-69
2021/06/22 06:48:02;;;;;;;45.42;6.57;;;;;;;;;;5004341;28;20025;-68
2021/06/22 06:50:27;;;;;;;35.20;5.78;;;;;;;;;;5005548;28;20410;-66
2021/06/22 06:52:52;;;;;;;40.95;5.47;;;;;;;;;;4993152;28;20152;-73
2021/06/22 06:55:36;;;;;;;36.70;6.22;;;;;;;;;;4990193;28;20026;-70
2021/06/22 06:58:04;;;;;;;40.83;5.90;;;;;;;;;;5006403;28;20029;-72
2021/06/22 07:00:30;;;;;;;24.23;4.65;;;;;;;;;;5007591;28;20508;-71
2021/06/22 07:02:56;;;;;;;38.80;6.45;;;;;;;;;;5003284;28;20025;-69
2021/06/22 07:05:21;;;;;;;29.95;5.10;;;;;;;;;;5012015;28;20044;-74
2021/06/22 07:07:47;;;;;;;28.52;5.22;;;;;;;;;;5011366;28;20021;-73
2021/06/22 07:10:12;;;;;;;33.00;5.28;;;;;;;;;;5011759;28;20049;-71
2021/06/22 07:12:38;;;;;;;31.33;5.68;;;;;;;;;;5011451;28;20502;-71
2021/06/22 07:15:03;;;;;;;29.15;5.28;;;;;;;;;;4992208;28;20038;-70
2021/06/22 07:17:29;;;;;;;33.85;5.38;;;;;;;;;;5000281;28;20021;-70
2021/06/22 07:19:54;;;;;;;31.52;5.50;;;;;;;;;;5012322;28;20022;-72
2021/06/22 07:22:20;;;;;;;41.13;5.53;;;;;;;;;;5009352;28;20022;-74
2021/06/22 07:24:45;;;;;;;32.03;6.32;;;;;;;;;;5012219;28;20121;-69
2021/06/22 07:27:10;;;;;;;40.17;5.05;;;;;;;;;;5012194;28;20013;-72
2021/06/22 07:29:36;;;;;;;46.47;7.18;;;;;;;;;;5008726;28;20520;-70
2021/06/22 07:32:01;;;;;;;29.63;6.15;;;;;;;;;;4999328;28;20030;-68
2021/06/22 07:34:26;;;;;;;31.45;5.43;;;;;;;;;;5011594;28;20052;-69
2021/06/22 07:36:52;;;;;;;32.63;5.60;;;;;;;;;;5011751;28;20386;-69
2021/06/22 07:39:17;;;;;;;31.27;5.82;;;;;;;;;;5011907;28;20047;-69
2021/06/22 07:41:43;;;;;;;35.00;6.22;;;;;;;;;;4997255;28;20022;-69
2021/06/22 07:44:08;;;;;;;66.35;8.90;;;;;;;;;;4996427;28;20364;-67
2021/06/22 07:46:33;;;;;;;28.50;5.03;;;;;;;;;;4996211;28;20018;-69
2021/06/22 07:48:59;;;;;;;27.33;5.68;;;;;;;;;;4996105;28;20415;-69
2021/06/22 07:51:24;;;;;;;36.42;6.20;;;;;;;;;;4996118;28;20493;-70
2021/06/22 07:53:49;;;;;;;28.80;5.35;;;;;;;;;;4994647;28;20026;-69
2021/06/22 07:56:15;;;;;;;35.70;6.10;;;;;;;;;;4996468;28;20029;-75
2021/06/22 07:58:40;;;;;;;35.97;5.78;;;;;;;;;;4996092;28;20450;-67
2021/06/22 08:01:06;;;;;;;38.85;5.40;;;;;;;;;;4995504;28;20018;-67
2021/06/22 08:03:31;;;;;;;41.67;6.40;;;;;;;;;;4996238;28;20530;-67
2021/06/22 08:05:56;;;;;;;32.08;5.82;;;;;;;;;;5003005;28;20030;-68
2021/06/22 08:08:22;;;;;;;35.95;6.25;;;;;;;;;;5015071;28;20029;-68
2021/06/22 08:10:51;;;;;;;31.83;4.60;;;;;;;;;;5015639;28;20022;-73
2021/06/22 08:13:16;;;;;;;45.00;6.18;;;;;;;;;;4983809;28;20018;-68
2021/06/22 08:15:42;;;;;;;34.85;5.82;;;;;;;;;;5014130;28;20049;-68
2021/06/22 08:18:08;;;;;;;41.47;7.28;;;;;;;;;;5015578;28;20467;-69
2021/06/22 08:20:34;;;;;;;34.17;6.07;;;;;;;;;;5011794;28;20049;-69
2021/06/22 08:22:59;;;;;;;36.67;6.20;;;;;;;;;;5014413;28;20049;-70
2021/06/22 08:25:26;;;;;;;41.72;6.70;;;;;;;;;;5011378;28;20099;-69
2021/06/22 08:27:52;;;;;;;30.90;5.30;;;;;;;;;;5014116;28;20058;-69
2021/06/22 08:30:19;;;;;;;39.47;6.28;;;;;;;;;;5013803;28;20049;-69
2021/06/22 08:32:44;;;;;;;31.90;5.63;;;;;;;;;;4992490;28;20026;-68
2021/06/22 08:35:10;;;;;;;41.50;6.32;;;;;;;;;;5007126;28;20029;-68
2021/06/22 08:37:35;;;;;;;37.00;6.00;;;;;;;;;;5013304;28;20044;-68
2021/06/22 08:40:01;;;;;;;25.08;5.30;;;;;;;;;;5014511;28;20061;-68
2021/06/22 08:42:27;;;;;;;119.00;10.18;;;;;;;;;;5013586;28;20505;-68
2021/06/22 08:44:52;;;;;;;79.75;9.20;;;;;;;;;;5013321;28;20037;-69
2021/06/22 08:47:22;;;;;;;25.50;4.78;;;;;;;;;;5013699;28;20021;-69
2021/06/22 08:49:48;;;;;;;27.90;6.05;;;;;;;;;;5004256;28;20029;-67
2021/06/22 08:52:14;;;;;;;27.85;5.93;;;;;;;;;;4977978;28;20014;-68
2021/06/22 08:54:39;;;;;;;30.63;6.70;;;;;;;;;;5009525;28;20034;-70
2021/06/22 08:57:05;;;;;;;29.80;6.00;;;;;;;;;;5014164;28;20064;-67
2021/06/22 08:59:30;;;;;;;33.22;6.38;;;;;;;;;;4995238;28;20026;-68
2021/06/22 09:01:55;;;;;;;33.58;6.20;;;;;;;;;;4994568;28;20014;-68
2021/06/22 09:04:21;;;;;;;30.63;6.18;;;;;;;;;;5008971;28;20375;-68
2021/06/22 09:06:46;;;;;;;30.17;5.68;;;;;;;;;;5013833;28;20072;-67
2021/06/22 09:09:12;;;;;;;35.20;6.75;;;;;;;;;;5014090;28;20025;-65
2021/06/22 09:11:37;;;;;;;28.60;7.18;;;;;;;;;;5013981;28;20031;-65
2021/06/22 09:14:04;;;;;;;31.52;6.22;;;;;;;;;;5002804;28;20482;-65
2021/06/22 09:16:30;;;;;;;33.28;6.03;;;;;;;;;;4998499;28;20063;-66
2021/06/22 09:19:04;;;;;;;25.33;5.40;;;;;;;;;;5013764;28;20474;-67
2021/06/22 09:21:37;;;;;;;25.75;5.30;;;;;;;;;;5014772;28;20037;-65
2021/06/22 09:24:03;;;;;;;35.40;6.72;;;;;;;;;;5013977;28;20058;-72
2021/06/22 09:26:31;;;;;;;35.70;6.43;;;;;;;;;;5005188;28;20123;-73
2021/06/22 09:29:06;;;;;;;35.25;6.85;;;;;;;;;;5010145;28;20521;-65
2021/06/22 09:31:32;;;;;;;33.10;6.13;;;;;;;;;;4996263;28;20030;-66
2021/06/22 09:33:58;;;;;;;28.02;6.05;;;;;;;;;;5002764;28;20027;-66
2021/06/22 09:36:28;;;;;;;41.25;5.97;;;;;;;;;;5002018;28;20153;-65
2021/06/22 09:38:58;;;;;;;24.55;5.10;;;;;;;;;;4995680;28;20482;-66
2021/06/22 09:41:27;;;;;;;30.48;5.45;;;;;;;;;;4984266;28;20386;-65
2021/06/22 09:44:07;;;;;;;31.00;5.38;;;;;;;;;;4977680;28;20457;-68
2021/06/22 09:46:37;;;;;;;33.70;5.20;;;;;;;;;;5000001;28;20482;-66
2021/06/22 09:49:04;;;;;;;18.98;4.57;;;;;;;;;;4995281;28;20434;-67
2021/06/22 09:51:33;;;;;;;32.85;4.95;;;;;;;;;;5001504;28;20026;-67
2021/06/22 09:54:12;;;;;;;28.73;5.32;;;;;;;;;;5000764;28;20030;-66
2021/06/22 09:56:37;;;;;;;33.50;5.80;;;;;;;;;;5004497;28;20022;-67
2021/06/22 09:59:06;;;;;;;28.55;5.70;;;;;;;;;;5006168;28;20110;-66
2021/06/22 10:01:33;;;;;;;29.52;6.65;;;;;;;;;;5000850;28;20506;-65
2021/06/22 10:04:13;;;;;;;23.75;6.13;;;;;;;;;;4999098;28;20027;-65
2021/06/22 10:06:39;;;;;;;21.85;5.63;;;;;;;;;;5002266;28;20513;-65
2021/06/22 10:09:06;;;;;;;37.15;6.32;;;;;;;;;;5006601;28;20031;-65
2021/06/22 10:11:36;;;;;;;31.08;5.95;;;;;;;;;;4981076;28;20037;-66
2021/06/22 10:14:03;;;;;;;28.13;5.55;;;;;;;;;;4989249;28;20026;-65
2021/06/22 10:16:30;;;;;;;32.13;6.43;;;;;;;;;;4998778;28;20084;-66
2021/06/22 10:18:56;;;;;;;39.05;5.70;;;;;;;;;;4994735;28;20032;-67
2021/06/22 10:21:21;;;;;;;17.38;4.80;;;;;;;;;;5004147;28;20011;-67
2021/06/22 10:23:47;;;;;;;42.03;8.00;;;;;;;;;;4979709;28;20054;-66
2021/06/22 10:26:13;;;;;;;25.13;5.47;;;;;;;;;;4996318;28;20030;-64
2021/06/22 10:28:38;;;;;;;26.27;5.20;;;;;;;;;;5003866;28;20498;-66
2021/06/22 10:31:04;;;;;;;21.95;5.60;;;;;;;;;;5012207;28;20057;-66
2021/06/22 10:33:30;;;;;;;29.42;6.15;;;;;;;;;;5005546;28;20357;-65
2021/06/22 10:35:55;;;;;;;23.95;5.03;;;;;;;;;;5012118;28;20018;-66
2021/06/22 10:38:22;;;;;;;21.73;5.50;;;;;;;;;;5006083;28;20014;-65
2021/06/22 10:40:57;;;;;;;24.83;4.82;;;;;;;;;;5011839;28;20029;-65
2021/06/22 10:43:34;;;;;;;19.73;5.50;;;;;;;;;;5010260;28;20421;-65
2021/06/22 10:46:05;;;;;;;24.45;5.28;;;;;;;;;;5010581;28;20164;-66
2021/06/22 10:48:44;;;;;;;18.50;5.18;;;;;;;;;;5011692;28;20482;-65
2021/06/22 10:51:29;;;;;;;23.42;5.00;;;;;;;;;;5011465;28;20079;-65
2021/06/22 10:53:55;;;;;;;26.60;5.25;;;;;;;;;;5011909;28;20398;-64
2021/06/22 10:56:20;;;;;;;31.65;5.57;;;;;;;;;;5011920;28;20013;-66
2021/06/22 10:59:05;;;;;;;25.17;5.97;;;;;;;;;;5012835;28;20478;-71
2021/06/22 11:01:50;;;;;;;38.72;6.93;;;;;;;;;;5005852;28;20097;-68
2021/06/22 11:04:16;;;;;;;33.33;5.00;;;;;;;;;;4971459;28;20026;-71
2021/06/22 11:06:41;;;;;;;30.73;5.45;;;;;;;;;;4991743;28;20030;-74
2021/06/22 11:09:13;;;;;;;51.35;6.30;;;;;;;;;;4992400;28;20411;-68
2021/06/22 11:11:39;;;;;;;28.13;5.55;;;;;;;;;;4992543;28;20398;-69
2021/06/22 11:14:05;;;;;;;26.45;5.32;;;;;;;;;;5002485;28;20032;-72
2021/06/22 11:16:32;;;;;;;28.00;5.93;;;;;;;;;;5011265;28;20470;-66
2021/06/22 11:19:02;;;;;;;18.83;5.40;;;;;;;;;;5012217;28;20040;-73
2021/06/22 11:21:31;;;;;;;33.80;5.45;;;;;;;;;;4990752;28;20022;-74
2021/06/22 11:24:00;;;;;;;22.33;5.95;;;;;;;;;;5007289;28;20049;-75
2021/06/22 11:26:27;;;;;;;34.65;6.70;;;;;;;;;;4997699;28;20022;-66
2021/06/22 11:28:59;;;;;;;19.95;4.85;;;;;;;;;;4975124;28;20022;-66
2021/06/22 11:31:43;;;;;;;28.05;5.68;;;;;;;;;;4992381;28;20109;-65
2021/06/22 11:34:17;;;;;;;33.13;5.43;;;;;;;;;;5002577;28;20057;-65
2021/06/22 11:36:44;;;;;;;27.58;5.20;;;;;;;;;;4994206;28;20445;-65
2021/06/22 11:39:11;;;;;;;27.60;5.37;;;;;;;;;;4970894;28;20543;-65
2021/06/22 11:41:37;;;;;;;22.33;5.03;;;;;;;;;;4989758;28;20015;-67
2021/06/22 11:44:21;;;;;;;20.45;4.78;;;;;;;;;;4970554;28;20483;-67
2021/06/22 11:46:47;;;;;;;28.83;4.65;;;;;;;;;;4995040;28;20030;-67
2021/06/22 11:49:12;;;;;;;27.40;4.85;;;;;;;;;;5007802;28;20026;-66
2021/06/22 11:51:53;;;;;;;27.50;4.78;;;;;;;;;;5009592;28;20032;-66
2021/06/22 11:54:20;;;;;;;28.42;4.40;;;;;;;;;;5011245;28;20478;-67
2021/06/22 11:56:46;;;;;;;23.00;4.82;;;;;;;;;;5011819;28;20110;-65
2021/06/22 11:59:12;;;;;;;55.67;6.53;;;;;;;;;;5011615;28;20108;-64
2021/06/22 12:01:44;;;;;;;25.52;4.70;;;;;;;;;;5005080;28;20105;-66
2021/06/22 12:04:09;;;;;;;25.00;5.05;;;;;;;;;;5010901;28;20014;-71
2021/06/22 12:06:35;;;;;;;21.80;5.28;;;;;;;;;;5011934;28;20552;-67
2021/06/22 12:09:00;;;;;;;27.88;4.45;;;;;;;;;;5011609;28;20014;-68
2021/06/22 12:11:30;;;;;;;28.45;5.38;;;;;;;;;;5011492;28;20097;-68
2021/06/22 12:13:56;;;;;;;28.13;4.80;;;;;;;;;;5001918;28;20026;-67
2021/06/22 12:16:23;;;;;;;35.13;5.50;;;;;;;;;;4974769;28;20047;-66
2021/06/22 12:18:49;;;;;;;23.65;4.47;;;;;;;;;;4991785;28;20018;-66
2021/06/22 12:21:15;;;;;;;30.20;5.93;;;;;;;;;;4991989;28;20073;-67
2021/06/22 12:23:42;;;;;;;33.90;5.60;;;;;;;;;;5005511;28;20026;-69
2021/06/22 12:26:07;;;;;;;23.38;4.55;;;;;;;;;;5000059;28;20018;-67
2021/06/22 12:28:34;;;;;;;25.38;4.80;;;;;;;;;;4992724;28;20033;-66
2021/06/22 12:31:00;;;;;;;20.33;4.40;;;;;;;;;;4995470;28;20042;-66
2021/06/22 12:33:28;;;;;;;29.02;4.50;;;;;;;;;;4995458;28;20105;-65
2021/06/22 12:35:54;;;;;;;26.15;4.38;;;;;;;;;;4995351;28;20497;-66
2021/06/22 12:38:20;;;;;;;28.95;4.80;;;;;;;;;;4995871;28;20049;-66
2021/06/22 12:40:59;;;;;;;29.52;4.80;;;;;;;;;;5006073;28;20042;-65
2021/06/22 12:43:39;;;;;;;26.00;4.47;;;;;;;;;;4997590;28;20025;-69
2021/06/22 12:46:05;;;;;;;24.70;5.40;;;;;;;;;;4997890;28;20463;-67
2021/06/22 12:48:31;;;;;;;28.05;4.50;;;;;;;;;;5006408;28;20033;-69
2021/06/22 12:50:56;;;;;;;40.90;4.70;;;;;;;;;;4994746;28;20018;-72
2021/06/22 12:53:22;;;;;;;39.60;6.32;;;;;;;;;;5000250;28;20453;-75
2021/06/22 12:55:48;;;;;;;29.75;4.95;;;;;;;;;;5006447;28;20022;-71
2021/06/22 12:58:14;;;;;;;28.27;4.78;;;;;;;;;;4995428;28;20042;-73
2021/06/22 13:00:41;;;;;;;17.65;4.32;;;;;;;;;;5005605;28;20021;-68
2021/06/22 13:03:08;;;;;;;28.15;4.10;;;;;;;;;;4992358;28;20073;-74
2021/06/22 13:05:35;;;;;;;25.20;3.80;;;;;;;;;;5010024;28;20049;-70
2021/06/22 13:08:01;;;;;;;24.90;3.70;;;;;;;;;;4995016;28;20471;-74
2021/06/22 13:10:26;;;;;;;32.85;4.18;;;;;;;;;;4977383;28;20037;-68
2021/06/22 13:12:52;;;;;;;25.73;4.28;;;;;;;;;;5002064;28;20029;-67
2021/06/22 13:15:17;;;;;;;27.65;4.35;;;;;;;;;;5005628;28;20037;-67
2021/06/22 13:17:53;;;;;;;47.25;5.03;;;;;;;;;;5013611;28;20014;-67
2021/06/22 13:20:22;;;;;;;25.88;4.28;;;;;;;;;;5011096;28;20109;-67
2021/06/22 13:22:48;;;;;;;31.05;4.75;;;;;;;;;;5008304;28;20459;-69
2021/06/22 13:25:15;;;;;;;24.55;4.22;;;;;;;;;;5010614;28;20026;-68
2021/06/22 13:27:43;;;;;;;31.73;4.37;;;;;;;;;;5012424;28;20022;-68
2021/06/22 13:30:16;;;;;;;25.33;4.33;;;;;;;;;;5012130;28;20107;-68
2021/06/22 13:32:52;;;;;;;437.55;31.58;;;;;;;;;;5013264;28;20088;-69
2021/06/22 13:35:27;;;;;;;22.02;4.03;;;;;;;;;;5013290;28;20092;-68
2021/06/22 13:37:55;;;;;;;23.58;4.45;;;;;;;;;;5010019;28;20553;-69
2021/06/22 13:40:21;;;;;;;17.55;4.30;;;;;;;;;;5013277;28;20026;-69
2021/06/22 13:43:05;;;;;;;25.48;4.65;;;;;;;;;;5011729;28;20115;-68
2021/06/22 13:45:33;;;;;;;24.83;4.10;;;;;;;;;;5013267;28;20022;-69
2021/06/22 13:47:59;;;;;;;21.80;4.20;;;;;;;;;;5013627;28;20018;-68
2021/06/22 13:50:25;;;;;;;20.77;3.80;;;;;;;;;;4984860;28;20563;-69
2021/06/22 13:52:54;;;;;;;28.45;4.15;;;;;;;;;;5009409;28;20021;-69
2021/06/22 13:58:06;;;;;;;22.40;4.13;;;;;;;;;;5006016;28;20060;-70
2021/06/22 14:00:32;;;;;;;25.08;4.68;;;;;;;;;;4986815;28;20018;-70
2021/06/22 14:02:57;;;;;;;24.85;4.45;;;;;;;;;;5005577;28;20077;-69
2021/06/22 14:05:26;;;;;;;19.98;4.68;;;;;;;;;;5012123;28;20076;-69
2021/06/22 14:07:52;;;;;;;28.58;5.30;;;;;;;;;;5011949;28;20025;-69
2021/06/22 14:10:17;;;;;;;21.63;4.80;;;;;;;;;;5011970;28;20101;-68
2021/06/22 14:12:43;;;;;;;29.48;5.15;;;;;;;;;;5010750;28;20057;-69
2021/06/22 14:15:09;;;;;;;28.33;4.88;;;;;;;;;;5010790;28;20087;-69
2021/06/22 14:17:34;;;;;;;29.17;4.57;;;;;;;;;;4978166;28;20080;-70
2021/06/22 14:19:59;;;;;;;22.42;4.50;;;;;;;;;;5009140;28;20045;-68
2021/06/22 14:22:25;;;;;;;29.02;3.97;;;;;;;;;;5011677;28;20026;-71
2021/06/22 14:24:51;;;;;;;27.67;5.43;;;;;;;;;;5009582;28;20022;-69
2021/06/22 14:27:16;;;;;;;33.65;4.80;;;;;;;;;;5007463;28;20472;-69